createdAt,value
2023-01-09T00:01:13.514Z,99160.72
2023-01-09T00:03:39.815Z,99167.63
2023-01-09T00:06:06.318Z,99169.78
2023-01-09T00:08:33.972Z,99160.22
2023-01-09T00:11:00.415Z,99172.44
2023-01-09T00:13:26.740Z,99170.97
2023-01-09T00:15:53.119Z,99170.31
2023-01-09T00:18:19.459Z,99177.41
2023-01-09T00:20:45.763Z,99177.59
2023-01-09T00:23:12.100Z,99184.03
2023-01-09T00:25:41.679Z,99186.03
2023-01-09T00:28:08.721Z,99184.38
2023-01-09T00:30:35.062Z,99183.72
2023-01-09T00:33:01.368Z,99175.97
2023-01-09T00:35:28.445Z,99193.00
2023-01-09T00:37:54.805Z,99196.47
2023-01-09T00:40:21.260Z,99196.31
2023-01-09T00:42:51.020Z,99200.94
2023-01-09T00:45:19.502Z,99204.28
2023-01-09T00:47:47.674Z,99197.03
2023-01-09T00:50:15.631Z,99199.34
2023-01-09T00:52:42.704Z,99194.38
2023-01-09T00:55:09.428Z,99200.78
2023-01-09T00:57:35.863Z,99202.31
2023-01-09T01:00:03.818Z,99203.84
2023-01-09T01:02:30.259Z,99204.50
2023-01-09T01:04:56.643Z,99209.44
2023-01-09T01:07:22.970Z,99208.31
2023-01-09T01:09:49.440Z,99211.31
2023-01-09T01:12:15.742Z,99200.63
2023-01-09T01:14:42.090Z,99203.41
2023-01-09T01:17:09.703Z,99196.00
2023-01-09T01:19:36.149Z,99198.34
2023-01-09T01:22:02.912Z,99198.66
2023-01-09T01:24:29.264Z,99209.38
2023-01-09T01:26:55.788Z,99210.38
2023-01-09T01:29:22.101Z,99208.06
2023-01-09T01:31:48.402Z,99212.06
2023-01-09T01:34:16.010Z,99207.78
2023-01-09T01:36:42.386Z,99197.72
2023-01-09T01:39:08.702Z,99206.16
2023-01-09T01:41:35.022Z,99210.44
2023-01-09T01:44:02.055Z,99219.50
2023-01-09T01:46:28.970Z,99223.28
2023-01-09T01:48:57.854Z,99229.69
2023-01-09T01:51:26.987Z,99225.56
2023-01-09T01:53:55.433Z,99236.13
2023-01-09T01:56:23.340Z,99241.75
2023-01-09T01:58:52.508Z,99247.66
2023-01-09T02:01:19.480Z,99245.38
2023-01-09T02:03:45.925Z,99245.69
2023-01-09T02:06:12.742Z,99247.00
2023-01-09T02:08:40.563Z,99252.94
2023-01-09T02:11:06.901Z,99245.69
2023-01-09T02:13:34.144Z,99248.94
2023-01-09T02:16:06.368Z,99245.69
2023-01-09T02:18:40.522Z,99251.94
2023-01-09T02:21:09.704Z,99243.38
2023-01-09T02:23:50.943Z,99246.31
2023-01-09T02:26:29.446Z,99248.63
2023-01-09T02:29:12.292Z,99243.38
2023-01-09T02:31:45.519Z,99245.34
2023-01-09T02:34:13.867Z,99241.88
2023-01-09T02:36:45.497Z,99241.06
2023-01-09T02:39:19.125Z,99236.75
2023-01-09T02:41:48.448Z,99246.00
2023-01-09T02:44:15.405Z,99238.41
2023-01-09T02:46:43.043Z,99234.13
2023-01-09T02:49:09.459Z,99228.03
2023-01-09T02:51:38.361Z,99235.78
2023-01-09T02:54:11.230Z,99239.41
2023-01-09T02:56:51.700Z,99235.28
2023-01-09T02:59:22.464Z,99232.81
2023-01-09T03:01:55.808Z,99229.84
2023-01-09T03:04:24.968Z,99239.41
2023-01-09T03:06:56.321Z,99235.28
2023-01-09T03:09:26.509Z,99232.81
2023-01-09T03:11:55.579Z,99219.78
2023-01-09T03:14:23.967Z,99216.19
2023-01-09T03:16:53.005Z,99212.06
2023-01-09T03:19:22.481Z,99214.84
2023-01-09T03:21:48.954Z,99228.22
2023-01-09T03:24:15.295Z,99227.84
2023-01-09T03:26:42.009Z,99231.97
2023-01-09T03:29:09.237Z,99235.44
2023-01-09T03:31:35.619Z,99238.06
2023-01-09T03:34:01.963Z,99241.53
2023-01-09T03:36:29.633Z,99249.09
2023-01-09T03:38:55.960Z,99244.00
2023-01-09T03:41:22.252Z,99249.09
2023-01-09T03:43:48.669Z,99248.59
2023-01-09T03:46:15.398Z,99244.31
2023-01-09T03:48:41.699Z,99246.44
2023-01-09T03:51:08.234Z,99248.09
2023-01-09T03:53:35.898Z,99245.97
2023-01-09T03:56:02.229Z,99252.06
2023-01-09T03:58:28.727Z,99257.19
2023-01-09T04:00:57.811Z,99252.22
2023-01-09T04:03:24.241Z,99245.66
2023-01-09T04:05:50.547Z,99249.91
2023-01-09T04:08:16.954Z,99250.94
2023-01-09T04:10:45.438Z,99252.75
2023-01-09T04:13:12.047Z,99258.16
2023-01-09T04:15:38.430Z,99259.34
2023-01-09T04:18:04.796Z,99252.72
2023-01-09T04:20:31.365Z,99247.66
2023-01-09T04:22:57.700Z,99249.47
2023-01-09T04:25:24.001Z,99247.19
2023-01-09T04:27:51.737Z,99244.03
2023-01-09T04:30:18.177Z,99242.41
2023-01-09T04:32:44.524Z,99248.31
2023-01-09T04:35:10.851Z,99244.69
2023-01-09T04:37:37.268Z,99247.00
2023-01-09T04:40:03.870Z,99242.06
2023-01-09T04:42:30.218Z,99256.22
2023-01-09T04:44:57.861Z,99251.78
2023-01-09T04:47:24.161Z,99252.63
2023-01-09T04:49:50.545Z,99252.59
2023-01-09T04:52:16.855Z,99254.06
2023-01-09T04:54:43.182Z,99242.88
2023-01-09T04:57:09.495Z,99244.16
2023-01-09T04:59:35.844Z,99236.91
2023-01-09T05:02:03.580Z,99244.66
2023-01-09T05:04:30.038Z,99236.75
2023-01-09T05:06:56.457Z,99245.81
2023-01-09T05:09:22.955Z,99238.72
2023-01-09T05:11:49.555Z,99244.78
2023-01-09T05:14:15.964Z,99242.31
2023-01-09T05:16:42.424Z,99248.72
2023-01-09T05:19:10.188Z,99249.88
2023-01-09T05:21:36.797Z,99255.81
2023-01-09T05:24:03.115Z,99255.81
2023-01-09T05:26:29.441Z,99249.72
2023-01-09T05:28:56.105Z,99248.22
2023-01-09T05:31:23.210Z,99238.63
2023-01-09T05:33:49.545Z,99250.53
2023-01-09T05:36:17.256Z,99240.97
2023-01-09T05:38:43.576Z,99247.41
2023-01-09T05:41:09.905Z,99240.97
2023-01-09T05:43:36.334Z,99245.94
2023-01-09T05:46:02.789Z,99254.81
2023-01-09T05:48:29.424Z,99255.47
2023-01-09T05:50:55.768Z,99248.88
2023-01-09T05:53:23.415Z,99240.28
2023-01-09T05:55:49.727Z,99242.09
2023-01-09T05:58:16.066Z,99241.28
2023-01-09T06:00:42.369Z,99238.09
2023-01-09T06:03:08.772Z,99224.25
2023-01-09T06:05:35.124Z,99229.16
2023-01-09T06:08:01.445Z,99226.66
2023-01-09T06:10:29.127Z,99237.56
2023-01-09T06:12:55.424Z,99231.28
2023-01-09T06:15:21.752Z,99239.69
2023-01-09T06:17:48.044Z,99233.44
2023-01-09T06:20:14.353Z,99233.59
2023-01-09T06:22:40.822Z,99224.97
2023-01-09T06:25:07.527Z,99226.78
2023-01-09T06:27:35.258Z,99228.44
2023-01-09T06:30:01.584Z,99228.09
2023-01-09T06:32:27.931Z,99233.03
2023-01-09T06:34:54.262Z,99228.38
2023-01-09T06:37:20.643Z,99231.50
2023-01-09T06:39:46.994Z,99226.19
2023-01-09T06:42:13.263Z,99235.63
2023-01-09T06:44:40.934Z,99241.41
2023-01-09T06:47:07.252Z,99235.28
2023-01-09T06:49:33.581Z,99235.16
2023-01-09T06:51:59.859Z,99233.50
2023-01-09T06:54:28.633Z,99246.66
2023-01-09T06:56:55.090Z,99245.88
2023-01-09T06:59:21.407Z,99240.69
2023-01-09T07:01:49.120Z,99238.88
2023-01-09T07:04:15.523Z,99242.84
2023-01-09T07:06:41.891Z,99238.81
2023-01-09T07:09:08.230Z,99243.63
2023-01-09T07:11:34.554Z,99247.28
2023-01-09T07:14:00.878Z,99243.44
2023-01-09T07:16:27.198Z,99256.66
2023-01-09T07:18:54.882Z,99264.91
2023-01-09T07:21:21.251Z,99255.16
2023-01-09T07:23:47.560Z,99267.22
2023-01-09T07:26:13.916Z,99266.38
2023-01-09T07:28:40.195Z,99261.84
2023-01-09T07:31:06.622Z,99266.31
2023-01-09T07:33:33.380Z,99272.09
2023-01-09T07:36:01.052Z,99280.03
2023-01-09T07:38:27.393Z,99282.50
2023-01-09T07:40:53.692Z,99282.81
2023-01-09T07:43:20.006Z,99286.13
2023-01-09T07:45:46.573Z,99301.97
2023-01-09T07:48:12.916Z,99296.69
2023-01-09T07:50:39.238Z,99313.16
2023-01-09T07:53:06.839Z,99310.53
2023-01-09T07:55:33.124Z,99305.41
2023-01-09T07:57:59.467Z,99305.28
2023-01-09T08:00:25.746Z,99306.94
2023-01-09T08:02:52.066Z,99306.63
2023-01-09T08:05:18.401Z,99310.47
2023-01-09T08:07:44.738Z,99317.16
2023-01-09T08:10:12.579Z,99326.09
2023-01-09T08:12:42.014Z,99322.47
2023-01-09T08:15:08.704Z,99332.03
2023-01-09T08:17:34.997Z,99321.63
2023-01-09T08:20:01.271Z,99335.50
2023-01-09T08:22:27.654Z,99335.34
2023-01-09T08:24:53.969Z,99349.56
2023-01-09T08:27:21.604Z,99349.03
2023-01-09T08:29:47.916Z,99344.59
2023-01-09T08:32:14.393Z,99346.06
2023-01-09T08:34:40.751Z,99357.91
2023-01-09T08:37:07.106Z,99356.28
2023-01-09T08:39:33.419Z,99363.38
2023-01-09T08:41:59.726Z,99369.47
2023-01-09T08:44:27.413Z,99367.00
2023-01-09T08:46:53.769Z,99376.59
2023-01-09T08:49:20.107Z,99376.41
2023-01-09T08:51:46.557Z,99388.47
2023-01-09T08:54:12.852Z,99383.50
2023-01-09T08:56:39.148Z,99394.56
2023-01-09T08:59:05.468Z,99405.81
2023-01-09T09:01:33.218Z,99405.81
2023-01-09T09:03:59.512Z,99399.16
2023-01-09T09:06:25.801Z,99405.81
2023-01-09T09:08:52.129Z,99421.50
2023-01-09T09:11:18.440Z,99430.88
2023-01-09T09:13:44.737Z,99428.59
2023-01-09T09:16:11.098Z,99432.03
2023-01-09T09:18:38.774Z,99434.31
2023-01-09T09:21:05.167Z,99438.97
2023-01-09T09:23:31.502Z,99447.72
2023-01-09T09:25:57.806Z,99442.88
2023-01-09T09:28:24.142Z,99449.47
2023-01-09T09:30:50.513Z,99459.84
2023-01-09T09:33:16.826Z,99461.38
2023-01-09T09:35:44.452Z,99461.84
2023-01-09T09:38:10.853Z,99462.66
2023-01-09T09:40:50.584Z,99477.25
2023-01-09T09:43:23.889Z,99480.88
2023-01-09T09:45:54.298Z,99485.47
2023-01-09T09:48:30.327Z,99499.22
2023-01-09T09:51:09.218Z,99499.16
2023-01-09T09:53:38.961Z,99509.91
2023-01-09T09:56:05.560Z,99508.59
2023-01-09T09:58:36.448Z,99521.97
2023-01-09T10:01:03.591Z,99530.53
2023-01-09T10:03:34.129Z,99532.22
2023-01-09T10:06:03.686Z,99535.84
2023-01-09T10:08:36.817Z,99543.25
2023-01-09T10:11:03.579Z,99540.31
2023-01-09T10:13:31.853Z,99547.63
2023-01-09T10:16:03.573Z,99550.56
2023-01-09T10:18:35.156Z,99565.72
2023-01-09T10:21:05.387Z,99567.75
2023-01-09T10:23:40.780Z,99571.06
2023-01-09T10:26:11.581Z,99575.03
2023-01-09T10:28:50.464Z,99576.00
2023-01-09T10:31:21.632Z,99576.34
2023-01-09T10:33:53.721Z,99578.69
2023-01-09T10:36:28.003Z,99582.63
2023-01-09T10:38:57.197Z,99582.00
2023-01-09T10:41:27.209Z,99587.97
2023-01-09T10:43:56.659Z,99594.09
2023-01-09T10:46:25.660Z,99590.94
2023-01-09T10:48:54.799Z,99591.63
2023-01-09T10:51:22.211Z,99596.41
2023-01-09T10:53:50.152Z,99595.22
2023-01-09T10:56:21.171Z,99586.78
2023-01-09T10:58:47.838Z,99591.56
2023-01-09T11:01:14.613Z,99595.34
2023-01-09T11:03:41.037Z,99584.13
2023-01-09T11:06:17.955Z,99590.44
2023-01-09T11:08:45.115Z,99596.19
2023-01-09T11:11:11.427Z,99594.22
2023-01-09T11:13:39.160Z,99595.38
2023-01-09T11:16:07.507Z,99597.19
2023-01-09T11:18:34.639Z,99602.47
2023-01-09T11:21:14.119Z,99603.78
2023-01-09T11:23:40.442Z,99603.44
2023-01-09T11:26:20.926Z,99600.97
2023-01-09T11:29:04.211Z,99611.06
2023-01-09T11:31:30.909Z,99616.66
2023-01-09T11:33:57.313Z,99622.63
2023-01-09T11:36:24.378Z,99623.66
2023-01-09T11:38:52.297Z,99630.91
2023-01-09T11:41:19.627Z,99632.56
2023-01-09T11:43:47.886Z,99623.50
2023-01-09T11:46:29.075Z,99633.19
2023-01-09T11:48:57.502Z,99624.28
2023-01-09T11:51:24.802Z,99630.06
2023-01-09T11:53:55.938Z,99629.72
2023-01-09T11:56:22.406Z,99624.94
2023-01-09T11:58:48.857Z,99634.66
2023-01-09T12:01:25.907Z,99638.50
2023-01-09T12:03:59.724Z,99646.06
2023-01-09T12:06:31.949Z,99638.16
2023-01-09T12:09:01.137Z,99641.31
2023-01-09T12:11:33.086Z,99638.50
2023-01-09T12:14:09.101Z,99647.41
2023-01-09T12:16:38.477Z,99644.63
2023-01-09T12:19:15.563Z,99651.53
2023-01-09T12:21:46.143Z,99659.44
2023-01-09T12:24:23.291Z,99648.69
2023-01-09T12:26:54.169Z,99649.97
2023-01-09T12:29:36.423Z,99656.22
2023-01-09T12:32:09.504Z,99657.41
2023-01-09T12:34:45.157Z,99665.81
2023-01-09T12:37:24.470Z,99652.91
2023-01-09T12:39:54.983Z,99671.09
2023-01-09T12:42:42.118Z,99670.63
2023-01-09T12:45:17.466Z,99675.09
2023-01-09T12:47:45.711Z,99667.00
2023-01-09T12:50:39.292Z,99678.94
2023-01-09T12:53:11.267Z,99678.56
2023-01-09T12:55:40.763Z,99681.88
2023-01-09T12:58:11.868Z,99685.19
2023-01-09T13:00:40.442Z,99682.69
2023-01-09T13:03:13.353Z,99683.19
2023-01-09T13:05:42.586Z,99689.00
2023-01-09T13:08:15.045Z,99695.09
2023-01-09T13:10:43.427Z,99705.38
2023-01-09T13:13:13.177Z,99706.69
2023-01-09T13:15:41.199Z,99710.16
2023-01-09T13:18:12.468Z,99708.53
2023-01-09T13:20:42.186Z,99716.28
2023-01-09T13:23:13.082Z,99720.06
2023-01-09T13:25:41.627Z,99719.75
2023-01-09T13:28:13.581Z,99723.88
2023-01-09T13:30:47.860Z,99734.47
2023-01-09T13:33:17.023Z,99741.75
2023-01-09T13:35:51.016Z,99743.53
2023-01-09T13:38:19.870Z,99745.38
2023-01-09T13:40:46.296Z,99750.69
2023-01-09T13:43:12.694Z,99757.09
2023-01-09T13:45:39.604Z,99756.09
2023-01-09T13:48:25.178Z,99757.47
2023-01-09T13:50:51.727Z,99761.25
2023-01-09T13:53:36.932Z,99766.06
2023-01-09T13:56:06.022Z,99771.63
2023-01-09T13:58:56.854Z,99768.00
2023-01-09T14:01:44.805Z,99774.66
2023-01-09T14:04:27.847Z,99782.41
2023-01-09T14:07:09.108Z,99778.25
2023-01-09T14:09:36.380Z,99786.72
2023-01-09T14:12:05.853Z,99795.16
2023-01-09T14:14:33.933Z,99800.78
2023-01-09T14:17:00.719Z,99805.72
2023-01-09T14:19:32.072Z,99807.06
2023-01-09T14:21:59.208Z,99806.91
2023-01-09T14:24:28.430Z,99821.09
2023-01-09T14:26:56.923Z,99828.22
2023-01-09T14:29:44.934Z,99835.16
2023-01-09T14:32:29.811Z,99843.91
2023-01-09T14:34:57.484Z,99842.75
2023-01-09T14:37:25.162Z,99848.22
2023-01-09T14:39:51.983Z,99855.66
2023-01-09T14:42:20.293Z,99860.75
2023-01-09T14:44:50.393Z,99879.78
2023-01-09T14:47:19.627Z,99876.78
2023-01-09T14:49:48.795Z,99885.06
2023-01-09T14:52:20.182Z,99891.84
2023-01-09T14:54:48.204Z,99903.75
2023-01-09T14:57:22.796Z,99909.19
2023-01-09T14:59:56.042Z,99910.50
2023-01-09T15:02:22.993Z,99911.97
2023-01-09T15:04:49.668Z,99930.63
2023-01-09T15:07:19.549Z,99941.56
2023-01-09T15:09:47.629Z,99943.69
2023-01-09T15:12:20.495Z,99952.75
2023-01-09T15:14:50.227Z,99958.34
2023-01-09T15:17:20.014Z,99946.75
2023-01-09T15:19:46.576Z,99957.00
2023-01-09T15:22:21.538Z,99966.22
2023-01-09T15:24:47.879Z,99971.50
2023-01-09T15:27:14.542Z,99969.53
2023-01-09T15:29:41.003Z,99978.75
2023-01-09T15:32:09.493Z,99982.06
2023-01-09T15:34:37.223Z,99981.41
2023-01-09T15:37:04.074Z,99983.38
2023-01-09T15:39:32.423Z,99993.94
2023-01-09T15:41:59.485Z,99992.44
2023-01-09T15:44:27.583Z,99990.63
2023-01-09T15:46:56.601Z,100006.31
2023-01-09T15:49:23.185Z,100004.34
2023-01-09T15:51:51.128Z,100010.16
2023-01-09T15:54:19.715Z,100016.00
2023-01-09T15:56:46.035Z,100014.97
2023-01-09T15:59:23.181Z,100023.56
2023-01-09T16:01:55.866Z,100027.16
2023-01-09T16:04:23.222Z,100022.72
2023-01-09T16:06:52.431Z,100040.81
2023-01-09T16:09:22.779Z,100034.38
2023-01-09T16:11:50.163Z,100041.75
2023-01-09T16:14:19.468Z,100044.16
2023-01-09T16:16:46.510Z,100053.00
2023-01-09T16:19:28.802Z,100058.41
2023-01-09T16:21:57.918Z,100067.84
2023-01-09T16:24:25.591Z,100066.44
2023-01-09T16:26:52.390Z,100076.31
2023-01-09T16:29:33.674Z,100076.59
2023-01-09T16:32:00.467Z,100084.84
2023-01-09T16:34:26.842Z,100087.66
2023-01-09T16:36:53.272Z,100098.41
2023-01-09T16:39:20.980Z,100100.38
2023-01-09T16:41:47.305Z,100104.84
2023-01-09T16:44:13.621Z,100107.94
2023-01-09T16:46:41.209Z,100109.91
2023-01-09T16:49:15.741Z,100117.44
2023-01-09T16:51:42.070Z,100117.50
2023-01-09T16:54:08.393Z,100117.66
2023-01-09T16:56:37.083Z,100123.69
2023-01-09T16:59:03.415Z,100126.34
2023-01-09T17:01:29.759Z,100125.72
2023-01-09T17:03:56.072Z,100131.63
2023-01-09T17:06:24.438Z,100133.72
2023-01-09T17:08:50.732Z,100136.13
2023-01-09T17:11:21.474Z,100142.66
2023-01-09T17:13:49.669Z,100148.09
2023-01-09T17:16:16.473Z,100146.19
2023-01-09T17:18:42.891Z,100161.31
2023-01-09T17:21:15.006Z,100156.19
2023-01-09T17:23:41.324Z,100160.78
2023-01-09T17:26:11.091Z,100165.81
2023-01-09T17:28:37.419Z,100158.31
2023-01-09T17:31:06.123Z,100176.09
2023-01-09T17:33:33.277Z,100178.03
2023-01-09T17:36:01.192Z,100184.28
2023-01-09T17:38:27.498Z,100190.66
2023-01-09T17:40:53.818Z,100204.41
2023-01-09T17:43:20.241Z,100202.84
2023-01-09T17:45:46.599Z,100210.47
2023-01-09T17:48:18.035Z,100226.56
2023-01-09T17:50:45.067Z,100235.56
2023-01-09T17:53:11.455Z,100233.75
2023-01-09T17:55:37.841Z,100248.72
2023-01-09T17:58:04.240Z,100251.34
2023-01-09T18:00:31.862Z,100250.06
2023-01-09T18:02:58.386Z,100255.06
2023-01-09T18:05:26.078Z,100260.75
2023-01-09T18:07:52.450Z,100268.13
2023-01-09T18:10:20.497Z,100265.34
2023-01-09T18:12:46.809Z,100269.38
2023-01-09T18:15:13.197Z,100269.13
2023-01-09T18:17:39.514Z,100276.97
2023-01-09T18:20:06.349Z,100286.81
2023-01-09T18:22:33.995Z,100293.06
2023-01-09T18:25:00.409Z,100294.78
2023-01-09T18:27:26.730Z,100312.81
2023-01-09T18:29:53.033Z,100315.06
2023-01-09T18:32:19.328Z,100317.00
2023-01-09T18:34:45.646Z,100323.81
2023-01-09T18:37:12.081Z,100324.94
2023-01-09T18:39:39.777Z,100331.31
2023-01-09T18:42:06.673Z,100331.59
2023-01-09T18:44:33.051Z,100343.53
2023-01-09T18:47:01.327Z,100355.91
2023-01-09T18:49:28.231Z,100357.28
2023-01-09T18:51:54.533Z,100374.50
2023-01-09T18:54:20.868Z,100376.88
2023-01-09T18:56:48.562Z,100381.19
2023-01-09T18:59:14.832Z,100371.88
2023-01-09T19:01:41.152Z,100378.81
2023-01-09T19:04:07.499Z,100383.13
2023-01-09T19:06:33.942Z,100388.50
2023-01-09T19:09:00.317Z,100397.97
2023-01-09T19:11:26.795Z,100407.81
2023-01-09T19:13:54.440Z,100416.56
2023-01-09T19:16:20.913Z,100415.28
2023-01-09T19:18:47.291Z,100431.13
2023-01-09T19:21:15.643Z,100433.03
2023-01-09T19:23:42.756Z,100446.53
2023-01-09T19:26:14.851Z,100446.94
2023-01-09T19:28:41.137Z,100454.59
2023-01-09T19:31:08.863Z,100452.06
2023-01-09T19:33:35.231Z,100456.94
2023-01-09T19:36:01.539Z,100466.25
2023-01-09T19:38:27.954Z,100467.91
2023-01-09T19:40:54.283Z,100480.44
2023-01-09T19:43:20.851Z,100491.81
2023-01-09T19:45:47.170Z,100489.72
2023-01-09T19:48:14.816Z,100491.38
2023-01-09T19:50:41.112Z,100499.44
2023-01-09T19:53:07.398Z,100506.66
2023-01-09T19:55:33.720Z,100510.41
2023-01-09T19:58:00.048Z,100517.19
2023-01-09T20:00:26.453Z,100522.91
2023-01-09T20:02:55.647Z,100528.56
2023-01-09T20:05:23.632Z,100542.47
2023-01-09T20:07:52.923Z,100549.97
2023-01-09T20:10:19.241Z,100566.06
2023-01-09T20:12:45.679Z,100550.84
2023-01-09T20:15:12.081Z,100560.31
2023-01-09T20:17:38.424Z,100558.06
2023-01-09T20:20:05.173Z,100561.53
2023-01-09T20:22:32.848Z,100572.34
2023-01-09T20:24:59.165Z,100573.88
2023-01-09T20:27:25.482Z,100582.34
2023-01-09T20:29:51.817Z,100585.25
2023-01-09T20:32:18.122Z,100585.94
2023-01-09T20:34:44.453Z,100595.91
2023-01-09T20:37:10.768Z,100599.66
2023-01-09T20:39:38.606Z,100608.66
2023-01-09T20:42:04.966Z,100605.34
2023-01-09T20:44:31.303Z,100613.50
2023-01-09T20:46:57.614Z,100617.13
2023-01-09T20:49:24.098Z,100620.72
2023-01-09T20:51:51.231Z,100624.44
2023-01-09T20:54:18.288Z,100628.19
2023-01-09T20:56:45.959Z,100621.50
2023-01-09T20:59:13.374Z,100622.59
2023-01-09T21:01:39.705Z,100622.59
2023-01-09T21:04:06.306Z,100613.91
2023-01-09T21:06:32.719Z,100629.44
2023-01-09T21:08:59.055Z,100633.03
2023-01-09T21:11:25.409Z,100646.91
2023-01-09T21:13:53.052Z,100655.34
2023-01-09T21:16:20.511Z,100658.31
2023-01-09T21:18:47.507Z,100664.84
2023-01-09T21:21:14.692Z,100660.84
2023-01-09T21:23:44.646Z,100667.09
2023-01-09T21:26:11.759Z,100670.03
2023-01-09T21:28:38.102Z,100671.81
2023-01-09T21:31:05.859Z,100686.00
2023-01-09T21:33:32.179Z,100686.72
2023-01-09T21:35:58.621Z,100687.56
2023-01-09T21:38:25.250Z,100690.63
2023-01-09T21:40:52.431Z,100701.84
2023-01-09T21:43:24.211Z,100692.72
2023-01-09T21:45:50.593Z,100711.19
2023-01-09T21:48:18.266Z,100709.63
2023-01-09T21:50:44.598Z,100713.81
2023-01-09T21:53:10.885Z,100719.94
2023-01-09T21:55:37.202Z,100729.34
2023-01-09T21:58:03.526Z,100728.75
2023-01-09T22:00:29.877Z,100723.63
2023-01-09T22:02:56.298Z,100728.19
2023-01-09T22:05:23.919Z,100732.06
2023-01-09T22:07:50.329Z,100733.72
2023-01-09T22:10:16.916Z,100739.00
2023-01-09T22:12:43.205Z,100747.03
2023-01-09T22:15:09.907Z,100748.84
2023-01-09T22:17:36.198Z,100754.25
2023-01-09T22:20:02.522Z,100755.91
2023-01-09T22:22:30.247Z,100770.31
2023-01-09T22:24:56.572Z,100770.00
2023-01-09T22:27:22.837Z,100775.41
2023-01-09T22:29:49.137Z,100790.41
2023-01-09T22:32:15.444Z,100800.94
2023-01-09T22:34:41.823Z,100811.13
2023-01-09T22:37:08.146Z,100816.03
2023-01-09T22:39:35.810Z,100815.44
2023-01-09T22:42:02.136Z,100823.53
2023-01-09T22:44:28.431Z,100816.69
2023-01-09T22:46:54.776Z,100819.19
2023-01-09T22:49:21.110Z,100824.47
2023-01-09T22:51:47.443Z,100832.50
2023-01-09T22:54:13.888Z,100841.50
2023-01-09T22:56:41.511Z,100845.94
2023-01-09T22:59:07.805Z,100849.88
2023-01-09T23:01:34.107Z,100859.72
2023-01-09T23:04:00.439Z,100871.09
2023-01-09T23:06:26.781Z,100873.75
2023-01-09T23:08:53.122Z,100874.81
2023-01-09T23:11:20.635Z,100887.03
2023-01-09T23:13:48.289Z,100888.13
2023-01-09T23:16:14.682Z,100893.38
2023-01-09T23:18:41.018Z,100904.16
2023-01-09T23:21:07.502Z,100913.63
2023-01-09T23:23:33.809Z,100926.72
2023-01-09T23:26:02.408Z,100933.91
2023-01-09T23:28:29.078Z,100940.00
2023-01-09T23:30:56.852Z,100937.25
2023-01-09T23:33:23.156Z,100951.75
2023-01-09T23:35:49.536Z,100955.34
2023-01-09T23:38:15.893Z,100956.44
2023-01-09T23:40:42.584Z,100957.63
2023-01-09T23:43:09.299Z,100972.34
2023-01-09T23:45:36.399Z,100972.34
2023-01-09T23:48:04.519Z,100988.41
2023-01-09T23:50:30.841Z,100990.81
2023-01-09T23:52:57.289Z,100997.28
2023-01-09T23:55:23.993Z,100992.16
2023-01-09T23:57:50.969Z,100990.19
